sensor_id;sensor_type;location;lat;lon;timestamp;pressure;altitude;pressure_sealevel;temperature;humidity
80759;BME280;70150;45.582;10.178;2023-09-08T00:01:51;100415.94;;;22.14;60.64
80759;BME280;70150;45.582;10.178;2023-09-08T00:04:17;100411.63;;;22.13;61.03
80759;BME280;70150;45.582;10.178;2023-09-08T00:06:45;100416.00;;;22.11;61.42
80759;BME280;70150;45.582;10.178;2023-09-08T00:09:13;100418.66;;;22.14;61.50
80759;BME280;70150;45.582;10.178;2023-09-08T00:11:39;100413.81;;;22.02;61.56
80759;BME280;70150;45.582;10.178;2023-09-08T00:14:05;100414.91;;;22.05;61.34
80759;BME280;70150;45.582;10.178;2023-09-08T00:16:31;100407.50;;;22.05;61.22
80759;BME280;70150;45.582;10.178;2023-09-08T00:18:57;100418.44;;;22.05;61.50
80759;BME280;70150;45.582;10.178;2023-09-08T00:21:25;100416.13;;;22.04;61.33
80759;BME280;70150;45.582;10.178;2023-09-08T00:23:52;100408.66;;;22.04;61.43
80759;BME280;70150;45.582;10.178;2023-09-08T00:26:17;100399.47;;;21.95;61.66
80759;BME280;70150;45.582;10.178;2023-09-08T00:28:43;100404.50;;;21.96;61.78
80759;BME280;70150;45.582;10.178;2023-09-08T00:31:08;100397.75;;;22.04;61.35
80759;BME280;70150;45.582;10.178;2023-09-08T00:33:34;100395.13;;;21.97;61.55
80759;BME280;70150;45.582;10.178;2023-09-08T00:36:00;100405.34;;;21.93;61.66
80759;BME280;70150;45.582;10.178;2023-09-08T00:38:25;100398.06;;;21.87;62.10
80759;BME280;70150;45.582;10.178;2023-09-08T00:40:51;100400.78;;;21.87;62.13
80759;BME280;70150;45.582;10.178;2023-09-08T00:43:19;100397.88;;;21.97;61.84
80759;BME280;70150;45.582;10.178;2023-09-08T00:45:45;100391.56;;;22.00;61.18
80759;BME280;70150;45.582;10.178;2023-09-08T00:48:11;100385.75;;;21.98;61.31
80759;BME280;70150;45.582;10.178;2023-09-08T00:50:40;100391.94;;;22.02;61.04
80759;BME280;70150;45.582;10.178;2023-09-08T00:53:07;100379.44;;;22.01;61.06
80759;BME280;70150;45.582;10.178;2023-09-08T00:55:33;100388.78;;;22.04;60.57
80759;BME280;70150;45.582;10.178;2023-09-08T00:57:59;100388.06;;;22.00;60.86
80759;BME280;70150;45.582;10.178;2023-09-08T01:00:26;100388.28;;;22.09;60.49
80759;BME280;70150;45.582;10.178;2023-09-08T01:02:51;100384.44;;;22.06;60.28
80759;BME280;70150;45.582;10.178;2023-09-08T01:05:17;100382.59;;;22.00;60.48
80759;BME280;70150;45.582;10.178;2023-09-08T01:07:44;100390.44;;;21.98;60.81
80759;BME280;70150;45.582;10.178;2023-09-08T01:10:11;100393.09;;;22.01;60.65
80759;BME280;70150;45.582;10.178;2023-09-08T01:12:37;100387.47;;;21.89;61.18
80759;BME280;70150;45.582;10.178;2023-09-08T01:15:03;100385.91;;;21.88;61.15
80759;BME280;70150;45.582;10.178;2023-09-08T01:17:30;100385.28;;;21.80;61.61
80759;BME280;70150;45.582;10.178;2023-09-08T01:19:56;100382.31;;;21.68;62.11
80759;BME280;70150;45.582;10.178;2023-09-08T01:22:35;100380.50;;;21.61;62.23
80759;BME280;70150;45.582;10.178;2023-09-08T01:27:47;100376.44;;;21.69;61.84
80759;BME280;70150;45.582;10.178;2023-09-08T01:30:14;100376.09;;;21.67;61.96
80759;BME280;70150;45.582;10.178;2023-09-08T01:32:40;100376.97;;;21.61;62.51
80759;BME280;70150;45.582;10.178;2023-09-08T01:35:07;100378.63;;;21.55;62.77
80759;BME280;70150;45.582;10.178;2023-09-08T01:37:33;100373.47;;;21.60;62.82
80759;BME280;70150;45.582;10.178;2023-09-08T01:39:58;100368.38;;;21.62;62.19
80759;BME280;70150;45.582;10.178;2023-09-08T01:42:24;100368.41;;;21.59;62.16
80759;BME280;70150;45.582;10.178;2023-09-08T01:44:49;100369.66;;;21.54;62.31
80759;BME280;70150;45.582;10.178;2023-09-08T01:47:16;100362.25;;;21.55;62.18
80759;BME280;70150;45.582;10.178;2023-09-08T01:49:41;100364.19;;;21.54;62.24
80759;BME280;70150;45.582;10.178;2023-09-08T01:52:07;100363.94;;;21.45;62.44
80759;BME280;70150;45.582;10.178;2023-09-08T01:54:32;100359.44;;;21.35;62.92
80759;BME280;70150;45.582;10.178;2023-09-08T01:56:58;100363.19;;;21.45;62.87
80759;BME280;70150;45.582;10.178;2023-09-08T01:59:24;100356.16;;;21.43;63.04
80759;BME280;70150;45.582;10.178;2023-09-08T02:01:52;100356.91;;;21.48;62.56
80759;BME280;70150;45.582;10.178;2023-09-08T02:04:17;100357.31;;;21.46;62.28
80759;BME280;70150;45.582;10.178;2023-09-08T02:06:43;100353.28;;;21.54;62.17
80759;BME280;70150;45.582;10.178;2023-09-08T02:09:08;100349.72;;;21.57;61.87
80759;BME280;70150;45.582;10.178;2023-09-08T02:11:35;100349.19;;;21.42;61.99
80759;BME280;70150;45.582;10.178;2023-09-08T02:14:03;100348.41;;;21.42;62.27
80759;BME280;70150;45.582;10.178;2023-09-08T02:16:28;100347.09;;;21.50;62.31
80759;BME280;70150;45.582;10.178;2023-09-08T02:18:54;100357.91;;;21.57;62.01
80759;BME280;70150;45.582;10.178;2023-09-08T02:21:22;100356.38;;;21.56;61.92
80759;BME280;70150;45.582;10.178;2023-09-08T02:23:47;100352.56;;;21.50;62.41
80759;BME280;70150;45.582;10.178;2023-09-08T02:26:13;100353.75;;;21.49;62.28
80759;BME280;70150;45.582;10.178;2023-09-08T02:28:38;100347.81;;;21.54;62.02
80759;BME280;70150;45.582;10.178;2023-09-08T02:31:04;100352.53;;;21.54;62.08
80759;BME280;70150;45.582;10.178;2023-09-08T02:33:32;100345.56;;;21.49;62.03
80759;BME280;70150;45.582;10.178;2023-09-08T02:36:02;100349.00;;;21.53;61.55
80759;BME280;70150;45.582;10.178;2023-09-08T02:38:27;100344.31;;;21.54;61.46
80759;BME280;70150;45.582;10.178;2023-09-08T02:40:53;100343.91;;;21.55;61.61
80759;BME280;70150;45.582;10.178;2023-09-08T02:43:19;100346.66;;;21.55;61.57
80759;BME280;70150;45.582;10.178;2023-09-08T02:45:46;100346.69;;;21.52;61.57
80759;BME280;70150;45.582;10.178;2023-09-08T02:48:12;100345.44;;;21.56;61.41
80759;BME280;70150;45.582;10.178;2023-09-08T02:50:37;100352.97;;;21.49;61.59
80759;BME280;70150;45.582;10.178;2023-09-08T02:53:03;100347.66;;;21.42;61.78
80759;BME280;70150;45.582;10.178;2023-09-08T02:55:30;100353.44;;;21.43;61.69
80759;BME280;70150;45.582;10.178;2023-09-08T02:57:56;100350.72;;;21.43;61.70
80759;BME280;70150;45.582;10.178;2023-09-08T03:00:21;100353.41;;;21.47;61.50
80759;BME280;70150;45.582;10.178;2023-09-08T03:02:47;100349.97;;;21.43;61.44
80759;BME280;70150;45.582;10.178;2023-09-08T03:05:16;100349.13;;;21.46;61.42
80759;BME280;70150;45.582;10.178;2023-09-08T03:07:41;100353.53;;;21.40;61.80
80759;BME280;70150;45.582;10.178;2023-09-08T03:10:07;100351.91;;;21.42;61.77
80759;BME280;70150;45.582;10.178;2023-09-08T03:12:33;100345.38;;;21.36;61.69
80759;BME280;70150;45.582;10.178;2023-09-08T03:14:59;100349.44;;;21.25;62.07
80759;BME280;70150;45.582;10.178;2023-09-08T03:17:27;100349.09;;;21.23;62.34
80759;BME280;70150;45.582;10.178;2023-09-08T03:19:53;100348.63;;;21.28;62.26
80759;BME280;70150;45.582;10.178;2023-09-08T03:22:18;100351.81;;;21.23;62.09
80759;BME280;70150;45.582;10.178;2023-09-08T03:24:44;100340.13;;;21.22;61.75
80759;BME280;70150;45.582;10.178;2023-09-08T03:27:09;100350.16;;;21.29;61.85
80759;BME280;70150;45.582;10.178;2023-09-08T03:29:35;100339.25;;;21.29;61.71
80759;BME280;70150;45.582;10.178;2023-09-08T03:32:00;100342.38;;;21.27;61.65
80759;BME280;70150;45.582;10.178;2023-09-08T03:34:26;100346.81;;;21.18;62.10
80759;BME280;70150;45.582;10.178;2023-09-08T03:36:54;100335.03;;;21.24;62.06
80759;BME280;70150;45.582;10.178;2023-09-08T03:39:20;100337.75;;;21.24;62.18
80759;BME280;70150;45.582;10.178;2023-09-08T03:41:45;100341.25;;;21.25;62.01
80759;BME280;70150;45.582;10.178;2023-09-08T03:44:11;100331.88;;;21.26;61.74
80759;BME280;70150;45.582;10.178;2023-09-08T03:46:37;100337.72;;;21.28;61.79
80759;BME280;70150;45.582;10.178;2023-09-08T03:49:02;100335.31;;;21.30;61.42
80759;BME280;70150;45.582;10.178;2023-09-08T03:51:28;100331.09;;;21.25;61.43
80759;BME280;70150;45.582;10.178;2023-09-08T03:53:54;100330.69;;;21.27;61.64
80759;BME280;70150;45.582;10.178;2023-09-08T03:56:20;100333.06;;;21.25;61.71
80759;BME280;70150;45.582;10.178;2023-09-08T03:58:47;100334.66;;;21.22;62.03
80759;BME280;70150;45.582;10.178;2023-09-08T04:01:12;100337.81;;;21.21;61.97
80759;BME280;70150;45.582;10.178;2023-09-08T04:03:38;100333.16;;;21.18;62.17
80759;BME280;70150;45.582;10.178;2023-09-08T04:06:04;100336.34;;;21.13;62.21
80759;BME280;70150;45.582;10.178;2023-09-08T04:08:29;100341.81;;;21.13;62.20
80759;BME280;70150;45.582;10.178;2023-09-08T04:10:55;100335.53;;;21.16;62.18
80759;BME280;70150;45.582;10.178;2023-09-08T04:13:20;100333.03;;;21.02;62.27
80759;BME280;70150;45.582;10.178;2023-09-08T04:15:46;100334.09;;;21.08;62.23
80759;BME280;70150;45.582;10.178;2023-09-08T04:18:11;100330.13;;;21.12;61.79
80759;BME280;70150;45.582;10.178;2023-09-08T04:20:39;100335.63;;;21.09;61.61
80759;BME280;70150;45.582;10.178;2023-09-08T04:23:05;100338.06;;;21.03;61.89
80759;BME280;70150;45.582;10.178;2023-09-08T04:25:31;100336.09;;;21.04;61.84
80759;BME280;70150;45.582;10.178;2023-09-08T04:27:56;100340.84;;;21.00;62.20
80759;BME280;70150;45.582;10.178;2023-09-08T04:30:22;100329.56;;;20.98;62.54
80759;BME280;70150;45.582;10.178;2023-09-08T04:32:47;100331.94;;;20.96;62.66
80759;BME280;70150;45.582;10.178;2023-09-08T04:35:13;100330.81;;;20.90;62.81
80759;BME280;70150;45.582;10.178;2023-09-08T04:37:39;100332.81;;;20.86;62.92
80759;BME280;70150;45.582;10.178;2023-09-08T04:40:06;100338.09;;;21.00;62.62
80759;BME280;70150;45.582;10.178;2023-09-08T04:42:32;100342.84;;;20.96;62.55
80759;BME280;70150;45.582;10.178;2023-09-08T04:44:58;100342.19;;;20.85;63.04
80759;BME280;70150;45.582;10.178;2023-09-08T04:47:24;100352.22;;;20.91;62.73
80759;BME280;70150;45.582;10.178;2023-09-08T04:49:49;100347.63;;;20.85;63.09
80759;BME280;70150;45.582;10.178;2023-09-08T04:52:15;100345.59;;;20.92;62.78
80759;BME280;70150;45.582;10.178;2023-09-08T04:54:40;100353.34;;;20.94;62.72
80759;BME280;70150;45.582;10.178;2023-09-08T04:57:06;100355.44;;;20.83;62.77
80759;BME280;70150;45.582;10.178;2023-09-08T04:59:31;100349.50;;;20.91;62.56
80759;BME280;70150;45.582;10.178;2023-09-08T05:02:00;100351.34;;;21.01;62.25
80759;BME280;70150;45.582;10.178;2023-09-08T05:04:25;100358.66;;;21.08;62.25
80759;BME280;70150;45.582;10.178;2023-09-08T05:06:53;100365.28;;;21.07;62.14
80759;BME280;70150;45.582;10.178;2023-09-08T05:09:19;100364.88;;;21.08;62.42
80759;BME280;70150;45.582;10.178;2023-09-08T05:11:45;100364.72;;;21.19;61.84
80759;BME280;70150;45.582;10.178;2023-09-08T05:14:12;100363.91;;;21.22;61.94
80759;BME280;70150;45.582;10.178;2023-09-08T05:16:38;100362.66;;;21.26;61.45
80759;BME280;70150;45.582;10.178;2023-09-08T05:19:11;100357.16;;;21.30;61.68
80759;BME280;70150;45.582;10.178;2023-09-08T05:21:37;100370.56;;;21.21;61.66
80759;BME280;70150;45.582;10.178;2023-09-08T05:24:03;100366.59;;;21.25;61.79
80759;BME280;70150;45.582;10.178;2023-09-08T05:26:28;100371.47;;;21.37;61.55
80759;BME280;70150;45.582;10.178;2023-09-08T05:28:54;100377.84;;;21.31;61.54
80759;BME280;70150;45.582;10.178;2023-09-08T05:31:20;100379.81;;;21.27;61.66
80759;BME280;70150;45.582;10.178;2023-09-08T05:33:45;100380.81;;;21.63;60.82
80759;BME280;70150;45.582;10.178;2023-09-08T05:36:11;100370.91;;;22.61;57.77
80759;BME280;70150;45.582;10.178;2023-09-08T05:38:36;100371.84;;;23.46;54.85
80759;BME280;70150;45.582;10.178;2023-09-08T05:41:02;100372.66;;;24.23;52.25
80759;BME280;70150;45.582;10.178;2023-09-08T05:43:28;100365.63;;;24.92;50.29
80759;BME280;70150;45.582;10.178;2023-09-08T05:45:54;100373.31;;;24.84;50.70
80759;BME280;70150;45.582;10.178;2023-09-08T05:48:19;100373.75;;;24.95;50.45
80759;BME280;70150;45.582;10.178;2023-09-08T05:50:45;100371.94;;;25.55;48.73
80759;BME280;70150;45.582;10.178;2023-09-08T05:53:11;100374.31;;;26.24;47.14
80759;BME280;70150;45.582;10.178;2023-09-08T05:55:36;100384.78;;;26.73;45.77
80759;BME280;70150;45.582;10.178;2023-09-08T05:58:02;100372.13;;;24.85;50.21
80759;BME280;70150;45.582;10.178;2023-09-08T06:00:27;100378.31;;;25.39;49.58
80759;BME280;70150;45.582;10.178;2023-09-08T06:02:53;100383.47;;;27.08;45.37
80759;BME280;70150;45.582;10.178;2023-09-08T06:05:21;100378.16;;;27.62;43.99
80759;BME280;70150;45.582;10.178;2023-09-08T06:07:46;100374.88;;;25.85;47.79
80759;BME280;70150;45.582;10.178;2023-09-08T06:10:14;100383.56;;;24.96;50.64
80759;BME280;70150;45.582;10.178;2023-09-08T06:12:39;100378.56;;;24.50;51.88
80759;BME280;70150;45.582;10.178;2023-09-08T06:15:06;100384.84;;;23.90;53.61
80759;BME280;70150;45.582;10.178;2023-09-08T06:17:32;100386.22;;;23.98;53.42
80759;BME280;70150;45.582;10.178;2023-09-08T06:19:57;100378.31;;;25.14;50.09
80759;BME280;70150;45.582;10.178;2023-09-08T06:22:23;100380.09;;;24.38;52.42
80759;BME280;70150;45.582;10.178;2023-09-08T06:24:48;100384.69;;;23.81;54.00
80759;BME280;70150;45.582;10.178;2023-09-08T06:27:14;100379.63;;;23.79;54.41
80759;BME280;70150;45.582;10.178;2023-09-08T06:29:40;100385.97;;;23.76;54.41
80759;BME280;70150;45.582;10.178;2023-09-08T06:32:09;100388.28;;;23.78;54.47
80759;BME280;70150;45.582;10.178;2023-09-08T06:34:35;100396.66;;;23.71;54.62
80759;BME280;70150;45.582;10.178;2023-09-08T06:37:01;100388.69;;;23.92;54.12
80759;BME280;70150;45.582;10.178;2023-09-08T06:39:30;100401.09;;;24.29;53.10
80759;BME280;70150;45.582;10.178;2023-09-08T06:41:55;100399.84;;;26.81;47.18
80759;BME280;70150;45.582;10.178;2023-09-08T06:44:21;100404.06;;;30.54;38.83
80759;BME280;70150;45.582;10.178;2023-09-08T06:46:47;100401.41;;;32.01;35.70
80759;BME280;70150;45.582;10.178;2023-09-08T06:49:12;100391.53;;;33.23;33.65
80759;BME280;70150;45.582;10.178;2023-09-08T06:51:38;100393.88;;;34.25;31.68
80759;BME280;70150;45.582;10.178;2023-09-08T06:54:04;100396.03;;;34.68;30.79
80759;BME280;70150;45.582;10.178;2023-09-08T06:56:30;100391.22;;;35.46;29.92
80759;BME280;70150;45.582;10.178;2023-09-08T06:58:56;100393.00;;;36.28;28.43
80759;BME280;70150;45.582;10.178;2023-09-08T07:01:24;100391.47;;;37.03;27.53
80759;BME280;70150;45.582;10.178;2023-09-08T07:03:49;100384.41;;;37.50;26.64
80759;BME280;70150;45.582;10.178;2023-09-08T07:06:15;100384.41;;;38.17;25.71
80759;BME280;70150;45.582;10.178;2023-09-08T07:08:41;100387.38;;;37.82;26.09
80759;BME280;70150;45.582;10.178;2023-09-08T07:11:07;100385.97;;;38.13;26.00
80759;BME280;70150;45.582;10.178;2023-09-08T07:13:32;100383.84;;;38.74;24.89
80759;BME280;70150;45.582;10.178;2023-09-08T07:15:58;100379.75;;;39.33;24.45
80759;BME280;70150;45.582;10.178;2023-09-08T07:18:24;100373.81;;;39.23;24.79
80759;BME280;70150;45.582;10.178;2023-09-08T07:20:49;100380.59;;;39.02;24.57
80759;BME280;70150;45.582;10.178;2023-09-08T07:23:17;100377.31;;;39.56;24.13
80759;BME280;70150;45.582;10.178;2023-09-08T07:25:46;100376.47;;;39.87;23.59
80759;BME280;70150;45.582;10.178;2023-09-08T07:28:12;100375.69;;;39.60;24.29
80759;BME280;70150;45.582;10.178;2023-09-08T07:30:37;100374.47;;;38.16;25.43
80759;BME280;70150;45.582;10.178;2023-09-08T07:33:03;100380.34;;;39.58;24.10
80759;BME280;70150;45.582;10.178;2023-09-08T07:35:30;100375.34;;;40.03;23.14
80759;BME280;70150;45.582;10.178;2023-09-08T07:37:55;100378.22;;;36.34;27.20
80759;BME280;70150;45.582;10.178;2023-09-08T07:40:21;100370.66;;;34.72;30.11
80759;BME280;70150;45.582;10.178;2023-09-08T07:42:47;100379.19;;;32.98;33.71
80759;BME280;70150;45.582;10.178;2023-09-08T07:45:12;100379.63;;;31.94;35.60
80759;BME280;70150;45.582;10.178;2023-09-08T07:47:38;100372.63;;;31.15;36.57
80759;BME280;70150;45.582;10.178;2023-09-08T07:52:35;100378.78;;;30.23;37.61
80759;BME280;70150;45.582;10.178;2023-09-08T07:55:01;100377.63;;;29.58;39.29
80759;BME280;70150;45.582;10.178;2023-09-08T07:57:31;100377.28;;;29.74;40.23
80759;BME280;70150;45.582;10.178;2023-09-08T07:59:56;100374.59;;;30.04;39.77
80759;BME280;70150;45.582;10.178;2023-09-08T08:02:22;100379.78;;;29.87;40.14
80759;BME280;70150;45.582;10.178;2023-09-08T08:04:47;100379.69;;;29.82;40.29
80759;BME280;70150;45.582;10.178;2023-09-08T08:07:13;100377.69;;;29.49;40.52
80759;BME280;70150;45.582;10.178;2023-09-08T08:09:39;100373.81;;;29.56;40.72
80759;BME280;70150;45.582;10.178;2023-09-08T08:12:04;100376.09;;;29.25;41.24
80759;BME280;70150;45.582;10.178;2023-09-08T08:14:30;100380.63;;;29.13;41.99
80759;BME280;70150;45.582;10.178;2023-09-08T08:16:58;100386.63;;;29.03;41.84
80759;BME280;70150;45.582;10.178;2023-09-08T08:19:26;100380.28;;;29.20;42.38
80759;BME280;70150;45.582;10.178;2023-09-08T08:21:52;100379.41;;;29.47;42.98
80759;BME280;70150;45.582;10.178;2023-09-08T08:24:23;100376.00;;;29.52;40.93
80759;BME280;70150;45.582;10.178;2023-09-08T08:26:48;100374.50;;;29.74;41.17
80759;BME280;70150;45.582;10.178;2023-09-08T08:29:17;100377.03;;;29.63;40.64
80759;BME280;70150;45.582;10.178;2023-09-08T08:31:42;100381.31;;;29.64;41.34
80759;BME280;70150;45.582;10.178;2023-09-08T08:34:08;100373.56;;;29.77;40.14
80759;BME280;70150;45.582;10.178;2023-09-08T08:36:34;100378.50;;;29.97;40.35
80759;BME280;70150;45.582;10.178;2023-09-08T08:39:00;100368.41;;;30.09;40.10
80759;BME280;70150;45.582;10.178;2023-09-08T08:41:26;100374.03;;;30.00;41.40
80759;BME280;70150;45.582;10.178;2023-09-08T08:43:52;100367.47;;;30.12;38.91
80759;BME280;70150;45.582;10.178;2023-09-08T08:46:21;100376.72;;;30.09;39.98
80759;BME280;70150;45.582;10.178;2023-09-08T08:48:50;100362.06;;;30.17;38.95
80759;BME280;70150;45.582;10.178;2023-09-08T08:51:22;100362.88;;;30.09;38.65
80759;BME280;70150;45.582;10.178;2023-09-08T08:53:48;100364.78;;;30.03;37.67
80759;BME280;70150;45.582;10.178;2023-09-08T08:56:14;100352.28;;;30.07;38.37
80759;BME280;70150;45.582;10.178;2023-09-08T08:58:41;100362.13;;;30.08;40.00
80759;BME280;70150;45.582;10.178;2023-09-08T09:01:10;100352.97;;;30.17;37.56
80759;BME280;70150;45.582;10.178;2023-09-08T09:03:37;100356.34;;;30.21;39.39
80759;BME280;70150;45.582;10.178;2023-09-08T09:06:03;100352.59;;;30.09;37.21
80759;BME280;70150;45.582;10.178;2023-09-08T09:08:29;100348.53;;;29.72;37.34
80759;BME280;70150;45.582;10.178;2023-09-08T09:10:55;100355.50;;;29.91;37.72
80759;BME280;70150;45.582;10.178;2023-09-08T09:13:21;100351.50;;;30.07;38.07
80759;BME280;70150;45.582;10.178;2023-09-08T09:15:48;100349.91;;;30.15;39.00
80759;BME280;70150;45.582;10.178;2023-09-08T09:18:14;100357.25;;;30.18;38.16
80759;BME280;70150;45.582;10.178;2023-09-08T09:20:41;100349.50;;;30.31;37.70
80759;BME280;70150;45.582;10.178;2023-09-08T09:23:27;100346.34;;;30.23;36.54
80759;BME280;70150;45.582;10.178;2023-09-08T09:25:53;100344.84;;;30.37;37.61
80759;BME280;70150;45.582;10.178;2023-09-08T09:28:18;100334.31;;;30.41;37.89
80759;BME280;70150;45.582;10.178;2023-09-08T09:30:48;100340.03;;;30.37;37.17
80759;BME280;70150;45.582;10.178;2023-09-08T09:33:14;100337.88;;;30.18;36.71
80759;BME280;70150;45.582;10.178;2023-09-08T09:35:43;100341.28;;;30.22;36.96
80759;BME280;70150;45.582;10.178;2023-09-08T09:38:09;100332.41;;;30.32;36.08
80759;BME280;70150;45.582;10.178;2023-09-08T09:40:37;100332.91;;;30.45;36.38
80759;BME280;70150;45.582;10.178;2023-09-08T09:43:04;100330.81;;;30.55;37.15
80759;BME280;70150;45.582;10.178;2023-09-08T09:45:31;100331.06;;;30.57;35.89
80759;BME280;70150;45.582;10.178;2023-09-08T09:47:58;100329.84;;;30.72;36.07
80759;BME280;70150;45.582;10.178;2023-09-08T09:50:27;100336.81;;;30.53;35.90
80759;BME280;70150;45.582;10.178;2023-09-08T09:52:57;100329.31;;;30.16;37.11
80759;BME280;70150;45.582;10.178;2023-09-08T09:55:25;100324.91;;;30.09;37.20
80759;BME280;70150;45.582;10.178;2023-09-08T09:57:55;100327.75;;;30.15;36.37
80759;BME280;70150;45.582;10.178;2023-09-08T10:00:24;100323.63;;;30.34;37.15
80759;BME280;70150;45.582;10.178;2023-09-08T10:02:51;100322.50;;;30.55;34.90
80759;BME280;70150;45.582;10.178;2023-09-08T10:05:18;100322.84;;;30.48;36.51
80759;BME280;70150;45.582;10.178;2023-09-08T10:07:44;100315.91;;;30.38;37.83
80759;BME280;70150;45.582;10.178;2023-09-08T10:10:14;100319.03;;;30.60;37.12
80759;BME280;70150;45.582;10.178;2023-09-08T10:12:43;100317.13;;;30.66;38.01
80759;BME280;70150;45.582;10.178;2023-09-08T10:15:13;100313.59;;;30.65;37.17
80759;BME280;70150;45.582;10.178;2023-09-08T10:17:44;100308.72;;;30.75;36.48
80759;BME280;70150;45.582;10.178;2023-09-08T10:20:10;100311.13;;;30.82;36.39
80759;BME280;70150;45.582;10.178;2023-09-08T10:22:41;100304.53;;;30.94;37.40
80759;BME280;70150;45.582;10.178;2023-09-08T10:25:09;100304.91;;;30.72;36.67
80759;BME280;70150;45.582;10.178;2023-09-08T10:27:35;100306.63;;;30.55;37.73
80759;BME280;70150;45.582;10.178;2023-09-08T10:30:03;100305.47;;;30.76;37.12
80759;BME280;70150;45.582;10.178;2023-09-08T10:32:31;100309.31;;;30.79;37.57
80759;BME280;70150;45.582;10.178;2023-09-08T10:34:59;100299.34;;;31.01;37.65
80759;BME280;70150;45.582;10.178;2023-09-08T10:37:26;100301.88;;;30.41;36.39
80759;BME280;70150;45.582;10.178;2023-09-08T10:39:55;100296.97;;;30.65;37.00
80759;BME280;70150;45.582;10.178;2023-09-08T10:42:22;100289.88;;;30.93;37.32
80759;BME280;70150;45.582;10.178;2023-09-08T10:47:23;100285.88;;;30.94;37.71
80759;BME280;70150;45.582;10.178;2023-09-08T10:49:50;100282.66;;;30.81;37.27
80759;BME280;70150;45.582;10.178;2023-09-08T10:52:21;100286.94;;;30.97;36.81
80759;BME280;70150;45.582;10.178;2023-09-08T10:54:50;100275.47;;;30.75;36.87
80759;BME280;70150;45.582;10.178;2023-09-08T10:57:18;100267.28;;;30.80;36.29
80759;BME280;70150;45.582;10.178;2023-09-08T11:02:31;100284.84;;;30.63;37.67
80759;BME280;70150;45.582;10.178;2023-09-08T11:04:57;100276.81;;;30.94;37.00
80759;BME280;70150;45.582;10.178;2023-09-08T11:07:24;100278.31;;;30.95;37.56
80759;BME280;70150;45.582;10.178;2023-09-08T11:09:50;100280.00;;;31.07;36.75
80759;BME280;70150;45.582;10.178;2023-09-08T11:12:16;100276.84;;;31.14;37.36
80759;BME280;70150;45.582;10.178;2023-09-08T11:14:43;100282.75;;;31.21;36.37
80759;BME280;70150;45.582;10.178;2023-09-08T11:17:09;100285.91;;;31.29;36.54
80759;BME280;70150;45.582;10.178;2023-09-08T11:22:09;100278.69;;;31.37;36.02
80759;BME280;70150;45.582;10.178;2023-09-08T11:24:35;100282.28;;;31.23;36.54
80759;BME280;70150;45.582;10.178;2023-09-08T11:27:01;100275.16;;;31.36;36.97
80759;BME280;70150;45.582;10.178;2023-09-08T11:29:27;100273.25;;;30.93;36.58
80759;BME280;70150;45.582;10.178;2023-09-08T11:31:53;100278.16;;;30.84;36.21
80759;BME280;70150;45.582;10.178;2023-09-08T11:34:20;100277.00;;;30.90;37.07
80759;BME280;70150;45.582;10.178;2023-09-08T11:36:46;100273.97;;;30.88;37.58
80759;BME280;70150;45.582;10.178;2023-09-08T11:39:12;100267.69;;;31.08;37.45
80759;BME280;70150;45.582;10.178;2023-09-08T11:41:37;100275.47;;;31.24;36.71
80759;BME280;70150;45.582;10.178;2023-09-08T11:44:04;100274.22;;;31.25;36.42
80759;BME280;70150;45.582;10.178;2023-09-08T11:46:30;100275.94;;;30.73;37.55
80759;BME280;70150;45.582;10.178;2023-09-08T11:48:56;100273.97;;;30.88;37.26
80759;BME280;70150;45.582;10.178;2023-09-08T11:51:23;100273.78;;;31.12;37.16
80759;BME280;70150;45.582;10.178;2023-09-08T11:53:49;100267.16;;;31.24;36.07
80759;BME280;70150;45.582;10.178;2023-09-08T11:56:15;100275.53;;;30.95;35.53
80759;BME280;70150;45.582;10.178;2023-09-08T11:58:41;100270.97;;;30.92;37.18
80759;BME280;70150;45.582;10.178;2023-09-08T12:01:08;100260.34;;;31.05;36.49
80759;BME280;70150;45.582;10.178;2023-09-08T12:03:51;100269.75;;;31.13;36.92
80759;BME280;70150;45.582;10.178;2023-09-08T12:06:17;100258.56;;;30.73;36.43
80759;BME280;70150;45.582;10.178;2023-09-08T12:08:43;100256.66;;;31.13;36.93
80759;BME280;70150;45.582;10.178;2023-09-08T12:11:09;100252.28;;;31.07;36.83
80759;BME280;70150;45.582;10.178;2023-09-08T12:13:35;100243.28;;;31.12;36.18
80759;BME280;70150;45.582;10.178;2023-09-08T12:16:01;100240.59;;;31.17;37.36
80759;BME280;70150;45.582;10.178;2023-09-08T12:21:04;100241.41;;;31.23;36.82
80759;BME280;70150;45.582;10.178;2023-09-08T12:23:31;100242.38;;;31.20;37.58
80759;BME280;70150;45.582;10.178;2023-09-08T12:25:57;100232.63;;;31.05;37.05
80759;BME280;70150;45.582;10.178;2023-09-08T12:28:30;100233.72;;;30.93;37.35
80759;BME280;70150;45.582;10.178;2023-09-08T12:30:56;100230.53;;;31.00;37.59
80759;BME280;70150;45.582;10.178;2023-09-08T12:33:21;100232.97;;;31.12;37.72
80759;BME280;70150;45.582;10.178;2023-09-08T12:35:47;100221.81;;;31.27;37.65
80759;BME280;70150;45.582;10.178;2023-09-08T12:38:19;100224.06;;;30.88;36.73
80759;BME280;70150;45.582;10.178;2023-09-08T12:40:44;100218.47;;;31.03;37.57
80759;BME280;70150;45.582;10.178;2023-09-08T12:43:10;100217.78;;;31.08;37.68
80759;BME280;70150;45.582;10.178;2023-09-08T12:45:38;100211.97;;;31.06;36.88
80759;BME280;70150;45.582;10.178;2023-09-08T12:48:04;100212.94;;;31.23;37.12
80759;BME280;70150;45.582;10.178;2023-09-08T12:50:32;100210.28;;;30.94;37.38
80759;BME280;70150;45.582;10.178;2023-09-08T12:52:57;100203.09;;;31.02;37.92